createdAt,value
2018-05-27T00:02:25.483Z,24.93
2018-05-27T00:04:53.803Z,20.57
2018-05-27T00:07:22.911Z,21.27
2018-05-27T00:09:52.059Z,20.23
2018-05-27T00:12:20.397Z,18.43
2018-05-27T00:14:48.783Z,19.97
2018-05-27T00:17:17.155Z,15.70
2018-05-27T00:19:45.531Z,14.00
2018-05-27T00:22:13.862Z,13.57
2018-05-27T00:24:42.245Z,13.80
2018-05-27T00:27:10.615Z,13.10
2018-05-27T00:29:38.953Z,13.67
2018-05-27T00:32:07.335Z,14.00
2018-05-27T00:34:35.714Z,11.77
2018-05-27T00:37:04.048Z,14.57
2018-05-27T00:39:32.440Z,14.23
2018-05-27T00:42:01.155Z,14.10
2018-05-27T00:44:29.671Z,12.67
2018-05-27T00:46:58.047Z,13.70
2018-05-27T00:49:26.370Z,13.07
2018-05-27T00:51:54.759Z,14.50
2018-05-27T00:54:23.080Z,13.90
2018-05-27T00:56:52.226Z,15.07
2018-05-27T00:59:20.588Z,14.80
2018-05-27T01:01:49.728Z,16.10
2018-05-27T01:04:18.095Z,15.20
2018-05-27T01:06:46.482Z,14.20
2018-05-27T01:09:15.654Z,15.03
2018-05-27T01:11:43.987Z,14.50
2018-05-27T01:14:12.303Z,15.50
2018-05-27T01:16:40.681Z,14.67
2018-05-27T01:19:08.982Z,14.80
2018-05-27T01:21:37.383Z,14.37
2018-05-27T01:24:06.540Z,13.83
2018-05-27T01:26:35.688Z,14.27
2018-05-27T01:29:04.087Z,14.77
2018-05-27T01:31:32.431Z,13.33
2018-05-27T01:34:00.756Z,14.70
2018-05-27T01:36:29.498Z,14.80
2018-05-27T01:38:57.853Z,14.97
2018-05-27T01:41:26.192Z,15.97
2018-05-27T01:43:55.284Z,14.53
2018-05-27T01:46:23.750Z,15.83
2018-05-27T01:48:52.127Z,14.27
2018-05-27T01:51:21.263Z,14.43
2018-05-27T01:53:49.653Z,14.00
2018-05-27T01:56:18.031Z,14.57
2018-05-27T01:58:46.407Z,15.30
2018-05-27T02:01:14.803Z,15.07
2018-05-27T02:03:43.916Z,16.50
2018-05-27T02:06:12.267Z,14.77
2018-05-27T02:08:40.603Z,14.20
2018-05-27T02:11:08.951Z,16.00
2018-05-27T02:13:37.503Z,15.40
2018-05-27T02:16:05.967Z,15.40
2018-05-27T02:18:35.045Z,14.83
2018-05-27T02:21:03.414Z,15.87
2018-05-27T02:23:31.783Z,18.20
2018-05-27T02:26:00.136Z,16.57
2018-05-27T02:28:28.468Z,16.30
2018-05-27T02:30:56.799Z,17.63
2018-05-27T02:33:25.359Z,18.47
2018-05-27T02:35:53.733Z,17.90
2018-05-27T02:38:22.830Z,17.70
2018-05-27T02:40:51.970Z,17.90
2018-05-27T02:43:20.324Z,19.00
2018-05-27T02:45:48.675Z,17.23
2018-05-27T02:48:16.999Z,17.70
2018-05-27T02:50:45.368Z,17.43
2018-05-27T02:53:13.679Z,19.27
2018-05-27T02:55:42.064Z,18.60
2018-05-27T02:58:10.423Z,18.27
2018-05-27T03:00:38.784Z,16.97
2018-05-27T03:03:07.089Z,17.37
2018-05-27T03:05:35.812Z,17.73
2018-05-27T03:08:04.197Z,17.23
2018-05-27T03:10:32.590Z,17.43
2018-05-27T03:13:00.985Z,18.20
2018-05-27T03:15:29.351Z,17.60
2018-05-27T03:17:57.707Z,17.37
2018-05-27T03:20:26.035Z,17.80
2018-05-27T03:22:54.430Z,17.80
2018-05-27T03:25:22.815Z,18.13
2018-05-27T03:27:51.231Z,18.60
2018-05-27T03:30:19.579Z,17.30
2018-05-27T03:32:48.091Z,16.07
2018-05-27T03:35:16.432Z,17.90
2018-05-27T03:37:44.821Z,18.53
2018-05-27T03:40:13.183Z,18.73
2018-05-27T03:42:41.559Z,17.33
2018-05-27T03:45:09.944Z,16.60
2018-05-27T03:47:38.323Z,16.40
2018-05-27T03:50:06.664Z,17.17
2018-05-27T03:52:35.025Z,17.80
2018-05-27T03:55:03.411Z,17.57
2018-05-27T03:57:31.773Z,17.10
2018-05-27T04:00:00.971Z,18.10
2018-05-27T04:02:29.295Z,18.40
2018-05-27T04:05:16.047Z,18.90
2018-05-27T04:08:02.057Z,18.93
2018-05-27T04:10:30.380Z,18.83
2018-05-27T04:12:58.765Z,18.03
2018-05-27T04:15:27.808Z,17.80
2018-05-27T04:17:56.278Z,18.20
2018-05-27T04:20:24.664Z,18.30
2018-05-27T04:22:52.987Z,17.70
2018-05-27T04:25:21.323Z,18.30
2018-05-27T04:27:49.671Z,17.80
2018-05-27T04:30:17.998Z,16.77
2018-05-27T04:32:46.335Z,18.53
2018-05-27T04:35:14.711Z,18.77
2018-05-27T04:37:43.093Z,18.13
2018-05-27T04:40:11.462Z,18.67
2018-05-27T04:42:39.791Z,19.13
2018-05-27T04:45:09.095Z,17.83
2018-05-27T04:47:37.494Z,18.10
2018-05-27T04:50:05.831Z,18.07
2018-05-27T04:52:34.230Z,17.30
2018-05-27T04:55:02.535Z,19.40
2018-05-27T04:57:30.907Z,18.27
2018-05-27T04:59:59.229Z,17.23
2018-05-27T05:02:27.639Z,17.40
2018-05-27T05:04:55.973Z,18.27
2018-05-27T05:07:24.713Z,20.23
2018-05-27T05:09:53.203Z,19.97
2018-05-27T05:12:21.556Z,19.00
2018-05-27T05:14:49.904Z,19.10
2018-05-27T05:17:22.574Z,19.57
2018-05-27T05:19:51.015Z,18.77
2018-05-27T05:22:20.675Z,19.37
2018-05-27T05:24:49.056Z,18.30
2018-05-27T05:27:17.402Z,18.37
2018-05-27T05:29:45.967Z,18.80
2018-05-27T05:32:14.315Z,18.53
2018-05-27T05:34:43.818Z,19.80
2018-05-27T05:37:12.303Z,19.30
2018-05-27T05:39:40.674Z,18.63
2018-05-27T05:42:09.011Z,19.10
2018-05-27T05:44:37.358Z,18.40
2018-05-27T05:47:05.719Z,17.27
2018-05-27T05:49:34.100Z,15.40
2018-05-27T05:52:02.438Z,16.63
2018-05-27T05:54:30.779Z,16.80
2018-05-27T05:56:59.085Z,15.67
2018-05-27T05:59:27.487Z,15.10
2018-05-27T06:01:55.863Z,14.40
2018-05-27T06:04:24.595Z,14.53
2018-05-27T06:06:52.968Z,14.10
2018-05-27T06:09:21.298Z,14.20
2018-05-27T06:11:49.635Z,15.43
2018-05-27T06:14:17.978Z,12.60
2018-05-27T06:16:46.331Z,14.10
2018-05-27T06:19:14.705Z,14.53
2018-05-27T06:21:43.155Z,12.23
2018-05-27T06:24:11.542Z,12.50
2018-05-27T06:26:39.903Z,12.43
2018-05-27T06:29:08.237Z,13.87
2018-05-27T06:31:36.620Z,12.33
2018-05-27T06:34:04.993Z,12.37
2018-05-27T06:36:33.391Z,13.10
2018-05-27T06:39:01.758Z,12.63
2018-05-27T06:41:30.171Z,12.13
2018-05-27T06:43:58.571Z,12.83
2018-05-27T06:46:26.967Z,12.40
2018-05-27T06:48:55.367Z,12.00
2018-05-27T06:51:23.755Z,12.20
2018-05-27T06:53:52.156Z,11.90
2018-05-27T06:56:20.518Z,12.50
2018-05-27T06:58:48.865Z,12.40
2018-05-27T07:01:17.244Z,11.80
2018-05-27T07:03:46.359Z,12.37
2018-05-27T07:06:14.771Z,12.50
2018-05-27T07:08:43.158Z,12.47
2018-05-27T07:11:11.552Z,11.83
2018-05-27T07:13:39.932Z,11.60
2018-05-27T07:16:08.296Z,11.80
2018-05-27T07:18:36.638Z,11.90
2018-05-27T07:21:05.032Z,11.20
2018-05-27T07:23:33.416Z,11.27
2018-05-27T07:26:01.753Z,11.33
2018-05-27T07:28:30.116Z,11.23
2018-05-27T07:30:58.487Z,10.93
2018-05-27T07:33:26.850Z,11.10
2018-05-27T07:35:55.194Z,9.77
2018-05-27T07:38:23.607Z,9.87
2018-05-27T07:40:51.947Z,10.17
2018-05-27T07:43:20.338Z,10.37
2018-05-27T07:45:59.488Z,10.00
2018-05-27T07:48:27.875Z,10.30
2018-05-27T07:50:56.260Z,8.70
2018-05-27T07:53:24.687Z,9.93
2018-05-27T07:55:53.050Z,9.50
2018-05-27T07:58:21.411Z,9.30
2018-05-27T08:00:49.768Z,9.20
2018-05-27T08:03:18.131Z,9.50
2018-05-27T08:05:46.524Z,9.20
2018-05-27T08:08:14.852Z,8.70
2018-05-27T08:10:43.239Z,9.77
2018-05-27T08:13:11.558Z,10.13
2018-05-27T08:15:39.859Z,9.50
2018-05-27T08:18:08.243Z,9.03
2018-05-27T08:20:37.375Z,9.40
2018-05-27T08:23:05.846Z,10.00
2018-05-27T08:25:34.939Z,10.03
2018-05-27T08:28:03.344Z,9.30
2018-05-27T08:30:31.665Z,9.47
2018-05-27T08:33:00.032Z,8.70
2018-05-27T08:35:28.378Z,9.00
2018-05-27T08:37:56.778Z,8.60
2018-05-27T08:40:25.135Z,8.90
2018-05-27T08:42:53.497Z,8.60
2018-05-27T08:45:21.810Z,8.93
2018-05-27T08:47:50.115Z,9.27
2018-05-27T08:50:19.263Z,9.50
2018-05-27T08:52:47.579Z,8.13
2018-05-27T08:55:15.958Z,8.73
2018-05-27T08:57:44.290Z,9.07
2018-05-27T09:00:12.610Z,9.33
2018-05-27T09:02:40.928Z,8.10
2018-05-27T09:05:09.225Z,8.80
2018-05-27T09:07:37.555Z,8.87
2018-05-27T09:10:05.863Z,9.17
2018-05-27T09:12:34.196Z,7.83
2018-05-27T09:15:02.493Z,8.93
2018-05-27T09:17:30.827Z,9.67
2018-05-27T09:19:59.131Z,10.00
2018-05-27T09:22:27.422Z,8.93
2018-05-27T09:24:55.811Z,9.93
2018-05-27T09:27:24.110Z,9.90
2018-05-27T09:29:52.451Z,10.30
2018-05-27T09:32:20.780Z,9.00
2018-05-27T09:34:49.115Z,10.70
2018-05-27T09:37:17.431Z,8.73
2018-05-27T09:39:46.572Z,9.10
2018-05-27T09:42:14.890Z,8.87
2018-05-27T09:44:43.234Z,9.87
2018-05-27T09:47:11.578Z,9.67
2018-05-27T09:49:39.900Z,8.37
2018-05-27T09:52:08.251Z,9.27
2018-05-27T09:54:36.582Z,9.60
2018-05-27T09:57:04.970Z,9.20
2018-05-27T09:59:33.344Z,8.70
2018-05-27T10:02:01.684Z,9.63
2018-05-27T10:04:29.980Z,8.97
2018-05-27T10:06:58.291Z,8.53
2018-05-27T10:09:26.634Z,8.57
2018-05-27T10:11:54.958Z,9.30
2018-05-27T10:14:23.327Z,8.90
2018-05-27T10:16:51.655Z,8.20
2018-05-27T10:19:20.015Z,8.50
2018-05-27T10:21:48.319Z,8.43
2018-05-27T10:24:16.650Z,8.53
2018-05-27T10:26:44.945Z,8.10
2018-05-27T10:29:13.272Z,9.17
2018-05-27T10:31:41.594Z,9.60
2018-05-27T10:34:09.898Z,7.83
2018-05-27T10:36:38.214Z,8.23
2018-05-27T10:39:06.531Z,8.70
2018-05-27T10:41:34.862Z,8.30
2018-05-27T10:44:03.218Z,8.83
2018-05-27T10:46:31.560Z,8.63
2018-05-27T10:48:59.894Z,8.60
2018-05-27T10:51:28.254Z,8.00
2018-05-27T10:53:56.599Z,8.93
2018-05-27T10:56:24.935Z,8.13
2018-05-27T10:58:53.263Z,8.00
2018-05-27T11:01:21.581Z,8.07
2018-05-27T11:03:49.914Z,9.30
2018-05-27T11:06:18.285Z,8.87
2018-05-27T11:08:46.634Z,8.50
2018-05-27T11:11:14.943Z,8.60
2018-05-27T11:13:43.316Z,8.40
2018-05-27T11:16:11.677Z,8.50
2018-05-27T11:18:40.060Z,7.97
2018-05-27T11:21:08.410Z,7.23
2018-05-27T11:23:36.732Z,8.43
2018-05-27T11:26:05.882Z,9.20
2018-05-27T11:28:34.215Z,7.47
2018-05-27T11:31:02.552Z,8.07
2018-05-27T11:33:30.898Z,7.80
2018-05-27T11:35:59.244Z,7.37
2018-05-27T11:38:27.559Z,7.87
2018-05-27T11:40:55.862Z,7.40
2018-05-27T11:43:24.191Z,7.73
2018-05-27T11:45:52.560Z,7.80
2018-05-27T11:48:20.925Z,8.10
2018-05-27T11:50:49.319Z,7.57
2018-05-27T11:53:17.886Z,7.10
2018-05-27T11:55:46.261Z,8.67
2018-05-27T11:58:14.655Z,8.10
2018-05-27T12:00:42.969Z,7.57
2018-05-27T12:03:11.326Z,7.60
2018-05-27T12:05:39.699Z,8.90
2018-05-27T12:08:08.003Z,7.40
2018-05-27T12:10:36.344Z,7.70
2018-05-27T12:13:04.728Z,7.37
2018-05-27T12:15:33.044Z,6.97
2018-05-27T12:18:01.359Z,7.27
2018-05-27T12:20:29.782Z,7.27
2018-05-27T12:22:58.103Z,7.27
2018-05-27T12:25:26.429Z,8.13
2018-05-27T12:27:54.759Z,7.60
2018-05-27T12:30:23.061Z,7.33
2018-05-27T12:32:51.397Z,7.60
2018-05-27T12:35:19.708Z,8.17
2018-05-27T12:37:48.813Z,7.20
2018-05-27T12:40:17.195Z,8.10
2018-05-27T12:42:45.775Z,8.17
2018-05-27T12:45:14.143Z,8.00
2018-05-27T12:47:42.474Z,7.73
2018-05-27T12:50:12.763Z,7.93
2018-05-27T12:52:41.075Z,7.77
2018-05-27T12:55:09.428Z,7.70
2018-05-27T12:57:38.503Z,7.97
2018-05-27T13:00:06.851Z,6.60
2018-05-27T13:02:35.168Z,5.90
2018-05-27T13:05:03.474Z,6.67
2018-05-27T13:07:31.786Z,6.40
2018-05-27T13:10:00.864Z,6.47
2018-05-27T13:12:29.330Z,6.30
2018-05-27T13:14:57.668Z,6.80
2018-05-27T13:17:26.002Z,5.97
2018-05-27T13:19:54.365Z,7.17
2018-05-27T13:22:22.689Z,7.00
2018-05-27T13:24:51.006Z,8.53
2018-05-27T13:27:19.359Z,9.40
2018-05-27T13:29:47.685Z,10.67
2018-05-27T13:32:16.034Z,10.47
2018-05-27T13:34:44.375Z,11.23
2018-05-27T13:37:12.694Z,10.60
2018-05-27T13:39:41.089Z,10.13
2018-05-27T13:42:09.403Z,11.70
2018-05-27T13:44:37.736Z,11.50
2018-05-27T13:47:06.072Z,9.97
2018-05-27T13:49:34.434Z,9.60
2018-05-27T13:52:02.737Z,9.33
2018-05-27T13:54:31.058Z,8.97
2018-05-27T13:56:59.376Z,9.03
2018-05-27T13:59:27.687Z,8.93
2018-05-27T14:01:56.023Z,8.10
2018-05-27T14:04:24.656Z,7.40
2018-05-27T14:06:53.189Z,7.63
2018-05-27T14:09:21.499Z,8.77
2018-05-27T14:11:49.855Z,7.93
2018-05-27T14:14:18.176Z,7.50
2018-05-27T14:16:47.267Z,8.40
2018-05-27T14:19:16.364Z,8.00
2018-05-27T14:21:44.692Z,7.43
2018-05-27T14:24:13.099Z,8.13
2018-05-27T14:26:41.553Z,7.67
2018-05-27T14:29:10.070Z,7.63
2018-05-27T14:31:38.402Z,7.40
2018-05-27T14:34:06.791Z,6.73
2018-05-27T14:36:35.120Z,7.53
2018-05-27T14:39:04.212Z,7.20
2018-05-27T14:41:32.533Z,7.20
2018-05-27T14:44:00.870Z,7.63
2018-05-27T14:46:29.273Z,7.97
2018-05-27T14:48:57.590Z,7.40
2018-05-27T14:51:26.715Z,8.27
2018-05-27T14:53:55.022Z,8.23
2018-05-27T14:56:23.342Z,7.63
2018-05-27T14:58:51.670Z,8.13
2018-05-27T15:01:20.000Z,6.80
2018-05-27T15:03:48.355Z,7.90
2018-05-27T15:06:16.843Z,8.03
2018-05-27T15:08:45.144Z,8.30
2018-05-27T15:11:14.239Z,8.97
2018-05-27T15:13:42.617Z,9.30
2018-05-27T15:16:10.963Z,11.43
2018-05-27T15:18:39.350Z,10.13
2018-05-27T15:21:08.420Z,9.10
2018-05-27T15:23:36.755Z,9.90
2018-05-27T15:26:05.065Z,9.37
2018-05-27T15:28:33.395Z,8.80
2018-05-27T15:31:01.712Z,8.60
2018-05-27T15:33:30.017Z,8.03
2018-05-27T15:35:58.338Z,8.17
2018-05-27T15:38:27.698Z,7.60
2018-05-27T15:40:56.805Z,8.13
2018-05-27T15:43:25.877Z,8.43
2018-05-27T15:45:54.195Z,8.47
2018-05-27T15:48:22.548Z,7.00
2018-05-27T15:50:50.846Z,6.60
2018-05-27T15:53:19.930Z,6.07
2018-05-27T15:55:48.391Z,6.37
2018-05-27T15:58:16.718Z,6.97
2018-05-27T16:00:45.033Z,6.27
2018-05-27T16:03:13.364Z,6.87
2018-05-27T16:05:42.424Z,6.40
2018-05-27T16:08:10.874Z,6.90
2018-05-27T16:10:39.244Z,6.77
2018-05-27T16:13:07.583Z,6.90
2018-05-27T16:15:35.915Z,6.70
2018-05-27T16:18:04.234Z,7.60
2018-05-27T16:20:33.312Z,7.20
2018-05-27T16:23:01.659Z,7.20
2018-05-27T16:25:29.960Z,6.87
2018-05-27T16:27:58.287Z,6.90
2018-05-27T16:30:26.614Z,6.43
2018-05-27T16:32:54.946Z,6.93
2018-05-27T16:35:23.281Z,6.63
2018-05-27T16:37:52.358Z,7.70
2018-05-27T16:40:20.693Z,6.90
2018-05-27T16:42:49.030Z,6.50
2018-05-27T16:45:17.366Z,10.60
2018-05-27T16:47:46.089Z,8.27
2018-05-27T16:50:14.416Z,9.30
2018-05-27T16:52:44.727Z,7.07
2018-05-27T16:55:13.055Z,5.50
2018-05-27T16:57:41.407Z,5.63
2018-05-27T17:00:09.734Z,5.30
2018-05-27T17:02:38.059Z,4.70
2018-05-27T17:05:06.374Z,4.63
2018-05-27T17:07:34.686Z,5.00
2018-05-27T17:10:03.764Z,4.70
2018-05-27T17:12:32.110Z,5.80
2018-05-27T17:15:00.438Z,5.43
2018-05-27T17:17:28.811Z,4.80
2018-05-27T17:20:01.166Z,5.70
2018-05-27T17:22:29.566Z,5.63
2018-05-27T17:24:57.967Z,6.20
2018-05-27T17:27:26.291Z,4.87
2018-05-27T17:29:55.531Z,5.30
2018-05-27T17:32:23.863Z,5.90
2018-05-27T17:34:52.231Z,5.90
2018-05-27T17:37:21.516Z,5.97
2018-05-27T17:39:49.855Z,6.30
2018-05-27T17:42:18.199Z,6.63
2018-05-27T17:44:49.711Z,5.57
2018-05-27T17:47:19.042Z,6.80
2018-05-27T17:49:48.207Z,6.27
2018-05-27T17:52:16.507Z,5.80
2018-05-27T17:54:44.857Z,5.93
2018-05-27T17:57:13.167Z,6.60
2018-05-27T17:59:41.559Z,6.30
2018-05-27T18:02:09.905Z,7.30
2018-05-27T18:04:39.008Z,6.60
2018-05-27T18:07:08.079Z,7.30
2018-05-27T18:09:36.439Z,7.23
2018-05-27T18:12:04.769Z,7.07
2018-05-27T18:14:33.099Z,6.20
2018-05-27T18:17:01.472Z,5.97
2018-05-27T18:19:29.843Z,5.83
2018-05-27T18:21:58.173Z,6.57
2018-05-27T18:24:30.122Z,7.00
2018-05-27T18:26:58.457Z,8.20
2018-05-27T18:29:26.774Z,7.10
2018-05-27T18:31:55.184Z,7.23
2018-05-27T18:34:23.554Z,6.73
2018-05-27T18:36:51.882Z,6.77
2018-05-27T18:39:21.024Z,7.80
2018-05-27T18:41:49.356Z,7.20
2018-05-27T18:44:17.742Z,7.00
2018-05-27T18:46:46.058Z,6.77
2018-05-27T18:49:14.383Z,7.10
2018-05-27T18:51:42.709Z,6.20
2018-05-27T18:54:11.058Z,8.23
2018-05-27T18:56:39.383Z,7.83
2018-05-27T18:59:07.757Z,7.20
2018-05-27T19:01:36.080Z,8.80
2018-05-27T19:04:04.473Z,8.77
2018-05-27T19:06:32.811Z,9.00
2018-05-27T19:09:01.207Z,8.70
2018-05-27T19:11:29.556Z,9.47
2018-05-27T19:13:57.921Z,9.80
2018-05-27T19:16:29.972Z,9.50
2018-05-27T19:19:00.227Z,9.57
2018-05-27T19:21:28.610Z,13.30
2018-05-27T19:23:56.935Z,8.97
2018-05-27T19:26:25.253Z,9.27
2018-05-27T19:28:54.346Z,9.20
2018-05-27T19:31:22.674Z,9.00
2018-05-27T19:33:51.010Z,10.10
2018-05-27T19:36:19.363Z,10.10
2018-05-27T19:38:47.744Z,10.00
2018-05-27T19:41:16.083Z,10.30
2018-05-27T19:43:44.444Z,9.53
2018-05-27T19:46:12.811Z,11.40
2018-05-27T19:48:41.191Z,10.97
2018-05-27T19:51:09.527Z,10.27
2018-05-27T19:53:37.851Z,11.10
2018-05-27T19:56:06.218Z,11.47
2018-05-27T19:58:34.574Z,12.20
2018-05-27T20:01:03.689Z,11.20
2018-05-27T20:03:32.060Z,13.03
2018-05-27T20:06:01.130Z,11.50
2018-05-27T20:08:29.467Z,14.10
2018-05-27T20:10:57.785Z,13.67
2018-05-27T20:13:26.146Z,14.67
2018-05-27T20:15:54.481Z,14.90
2018-05-27T20:18:22.822Z,14.83
2018-05-27T20:20:51.156Z,16.10
2018-05-27T20:23:19.507Z,16.63
2018-05-27T20:25:47.858Z,17.43
2018-05-27T20:28:16.174Z,17.20
2018-05-27T20:30:44.546Z,18.17
2018-05-27T20:33:12.823Z,16.80
2018-05-27T20:35:41.150Z,18.00
2018-05-27T20:38:09.499Z,17.73
2018-05-27T20:40:37.827Z,17.83
2018-05-27T20:43:06.980Z,19.37
2018-05-27T20:45:35.295Z,19.83
2018-05-27T20:48:03.643Z,18.17
2018-05-27T20:50:31.976Z,20.77
2018-05-27T20:53:00.328Z,23.27
2018-05-27T20:55:28.712Z,21.90
2018-05-27T20:57:57.049Z,23.67
2018-05-27T21:00:25.457Z,23.93
2018-05-27T21:02:54.579Z,25.90
2018-05-27T21:05:23.732Z,26.30
2018-05-27T21:07:52.043Z,25.67
2018-05-27T21:10:20.418Z,24.37
2018-05-27T21:12:48.735Z,24.67
2018-05-27T21:15:17.086Z,22.50
2018-05-27T21:17:45.407Z,24.40
2018-05-27T21:20:13.731Z,24.13
2018-05-27T21:22:42.830Z,25.87
2018-05-27T21:25:11.148Z,26.00
2018-05-27T21:27:39.490Z,26.40
2018-05-27T21:30:07.799Z,27.53
2018-05-27T21:32:36.980Z,26.27
2018-05-27T21:35:05.335Z,25.90
2018-05-27T21:37:33.743Z,23.97
2018-05-27T21:40:02.094Z,23.83
2018-05-27T21:42:30.418Z,25.33
2018-05-27T21:44:58.760Z,27.87
2018-05-27T21:47:27.882Z,26.80
2018-05-27T21:49:56.242Z,28.57
2018-05-27T21:52:24.557Z,28.77
2018-05-27T21:54:53.646Z,27.53
2018-05-27T21:57:21.980Z,27.13
2018-05-27T21:59:50.302Z,27.07
2018-05-27T22:02:18.648Z,27.40
2018-05-27T22:04:47.033Z,25.40
2018-05-27T22:07:15.379Z,29.60
2018-05-27T22:09:43.707Z,27.60
2018-05-27T22:12:12.867Z,29.50
2018-05-27T22:14:41.197Z,27.70
2018-05-27T22:17:09.563Z,29.47
2018-05-27T22:19:45.032Z,27.03
2018-05-27T22:22:14.199Z,26.13
2018-05-27T22:24:48.307Z,28.57
2018-05-27T22:27:17.404Z,27.43
2018-05-27T22:29:45.976Z,29.10
2018-05-27T22:32:14.321Z,27.47
2018-05-27T22:34:43.612Z,27.47
2018-05-27T22:37:12.626Z,26.40
2018-05-27T22:39:44.107Z,25.80
2018-05-27T22:42:13.237Z,27.53
2018-05-27T22:44:41.567Z,27.47
2018-05-27T22:47:09.969Z,28.00
2018-05-27T22:49:38.375Z,25.13
2018-05-27T22:52:13.950Z,26.47
2018-05-27T22:54:47.649Z,28.03
2018-05-27T22:57:16.225Z,29.43
2018-05-27T22:59:44.606Z,32.17
2018-05-27T23:02:12.995Z,31.37
2018-05-27T23:04:41.435Z,26.67
2018-05-27T23:07:09.784Z,29.23
2018-05-27T23:09:38.167Z,28.23
2018-05-27T23:12:06.518Z,28.10
2018-05-27T23:14:41.399Z,29.47
2018-05-27T23:17:09.782Z,31.53
2018-05-27T23:22:24.807Z,30.77
2018-05-27T23:24:53.288Z,31.37
2018-05-27T23:27:24.182Z,29.10
2018-05-27T23:29:52.545Z,29.43
2018-05-27T23:32:20.885Z,29.27
2018-05-27T23:34:53.911Z,31.73
2018-05-27T23:37:30.592Z,28.83
2018-05-27T23:40:11.458Z,27.50
2018-05-27T23:42:39.841Z,29.13
2018-05-27T23:45:08.243Z,25.93
2018-05-27T23:47:36.591Z,27.97
2018-05-27T23:50:12.107Z,28.93
2018-05-27T23:52:41.387Z,29.00
2018-05-27T23:55:14.192Z,31.37
2018-05-27T23:57:42.701Z,31.50
